Time;durP1;ratioP1;P1;durP2;ratioP2;P2;SDS_P1;SDS_P2;PMS_P1;PMS_P2;Temp;Humidity;BMP_temperature;BMP_pressure;BME280_temperature;BME280_humidity;BME280_pressure;Samples;Min_cycle;Max_cycle;Signal;HPM_P1;HPM_P2
2022/12/13 00:00:41;;;;;;;96.82;38.30;;;-4.40;99.90;;;;;;5000827;28;20501;-60
2022/12/13 00:03:07;;;;;;;90.30;38.80;;;-4.50;99.90;;;;;;4993237;28;20049;-58
2022/12/13 00:05:33;;;;;;;97.65;41.08;;;-4.50;99.90;;;;;;4987209;28;20057;-59
2022/12/13 00:08:00;;;;;;;95.63;39.08;;;-4.60;99.90;;;;;;5000206;28;20164;-58
2022/12/13 00:10:26;;;;;;;88.30;35.92;;;-4.70;99.90;;;;;;5000874;28;20072;-58
2022/12/13 00:12:52;;;;;;;84.53;34.28;;;-4.70;99.90;;;;;;4999716;28;20041;-59
2022/12/13 00:15:17;;;;;;;84.95;34.38;;;-4.70;99.90;;;;;;5002402;28;20052;-58
2022/12/13 00:17:44;;;;;;;86.47;35.25;;;-4.80;99.90;;;;;;5002825;28;20156;-58
2022/12/13 00:20:11;;;;;;;100.80;35.17;;;-4.80;99.90;;;;;;5002705;28;20046;-57
2022/12/13 00:22:37;;;;;;;80.93;32.28;;;-4.80;99.90;;;;;;4997336;28;20065;-59
2022/12/13 00:25:03;;;;;;;92.78;35.00;;;-4.80;99.90;;;;;;5001626;28;20050;-58
2022/12/13 00:27:29;;;;;;;80.50;32.08;;;-4.70;99.90;;;;;;5007082;28;20029;-59
2022/12/13 00:29:55;;;;;;;84.97;32.55;;;-4.70;99.90;;;;;;5021739;28;20084;-58
2022/12/13 00:32:20;;;;;;;93.00;35.08;;;-4.60;99.90;;;;;;5021660;28;20650;-59
2022/12/13 00:34:46;;;;;;;93.63;34.25;;;-4.60;99.90;;;;;;5022715;28;20452;-59
2022/12/13 00:37:12;;;;;;;94.15;35.53;;;-4.60;99.90;;;;;;5026119;28;20789;-58
2022/12/13 00:39:37;;;;;;;90.70;35.08;;;-4.50;99.90;;;;;;5027259;28;20124;-58
2022/12/13 00:42:03;;;;;;;91.70;34.80;;;-4.50;99.90;;;;;;5027650;28;20034;-58
2022/12/13 00:44:30;;;;;;;103.10;37.70;;;-4.40;99.90;;;;;;5025469;28;20045;-57
2022/12/13 00:46:55;;;;;;;97.72;36.78;;;-4.40;99.90;;;;;;5027335;28;20044;-59
2022/12/13 00:49:21;;;;;;;100.38;36.28;;;-4.30;99.90;;;;;;5025453;28;20461;-59
2022/12/13 00:51:48;;;;;;;86.25;35.05;;;-4.20;99.90;;;;;;5026083;28;20100;-58
2022/12/13 00:54:14;;;;;;;104.63;37.05;;;-4.10;99.90;;;;;;5026636;28;20090;-58
2022/12/13 00:56:41;;;;;;;91.85;35.10;;;-4.00;99.90;;;;;;5026830;28;20132;-57
2022/12/13 00:59:07;;;;;;;85.00;34.70;;;-4.00;99.90;;;;;;5026455;28;20116;-58
2022/12/13 01:01:35;;;;;;;84.85;33.17;;;-4.00;99.90;;;;;;5027203;28;20136;-58
2022/12/13 01:04:03;;;;;;;75.80;29.85;;;-4.00;99.90;;;;;;5026784;28;20424;-58
2022/12/13 01:06:44;;;;;;;81.50;30.73;;;-4.00;99.90;;;;;;5026539;28;21043;-57
2022/12/13 01:09:24;;;;;;;79.60;29.15;;;-4.00;99.90;;;;;;5027403;28;20274;-57
2022/12/13 01:11:49;;;;;;;62.10;27.98;;;-4.00;99.90;;;;;;5042243;28;20041;-58
2022/12/13 01:14:16;;;;;;;74.22;30.05;;;-4.10;99.90;;;;;;5024627;28;20033;-59
2022/12/13 01:16:42;;;;;;;78.47;31.15;;;-4.10;99.90;;;;;;5025630;28;20061;-57
2022/12/13 01:19:07;;;;;;;68.47;29.48;;;-4.20;99.90;;;;;;5024852;28;20045;-58
2022/12/13 01:21:33;;;;;;;83.15;31.42;;;-4.30;99.90;;;;;;5025730;28;20041;-58
2022/12/13 01:24:03;;;;;;;80.10;31.55;;;-4.30;99.90;;;;;;5026536;28;20045;-59
2022/12/13 01:26:30;;;;;;;77.05;31.75;;;-4.40;99.90;;;;;;5026469;28;20053;-58
2022/12/13 01:28:56;;;;;;;78.57;32.30;;;-4.40;99.90;;;;;;5023185;28;20060;-59
2022/12/13 01:31:21;;;;;;;77.65;29.30;;;-4.50;99.90;;;;;;5026580;28;20119;-58
2022/12/13 01:33:48;;;;;;;74.93;28.83;;;-4.50;99.90;;;;;;5026359;28;20518;-59
2022/12/13 01:36:16;;;;;;;82.53;30.77;;;-4.60;99.90;;;;;;5026301;28;20037;-59
2022/12/13 01:38:42;;;;;;;73.47;29.15;;;-4.60;99.90;;;;;;5025806;28;20228;-58
2022/12/13 01:41:13;;;;;;;66.65;27.25;;;-4.60;99.90;;;;;;5026584;28;20048;-59
2022/12/13 01:43:39;;;;;;;67.55;28.90;;;-4.70;99.90;;;;;;5023953;28;20504;-57
2022/12/13 01:46:04;;;;;;;65.53;27.05;;;-4.70;99.90;;;;;;5024887;28;20041;-58
2022/12/13 01:48:38;;;;;;;57.97;26.40;;;-4.80;99.90;;;;;;5025920;28;20048;-59
2022/12/13 01:51:06;;;;;;;72.95;29.10;;;-4.80;99.90;;;;;;5025691;28;20136;-58
2022/12/13 01:53:35;;;;;;;80.88;30.42;;;-4.90;99.90;;;;;;5025061;28;20225;-58
2022/12/13 01:56:05;;;;;;;77.93;29.85;;;-4.90;99.90;;;;;;5026313;28;20060;-57
2022/12/13 01:58:31;;;;;;;76.78;30.63;;;-4.90;99.90;;;;;;5023884;28;20057;-57
2022/12/13 02:00:58;;;;;;;70.00;27.27;;;-4.90;99.90;;;;;;5026776;28;20136;-58
2022/12/13 02:03:24;;;;;;;70.80;28.23;;;-4.90;99.90;;;;;;5025394;28;20191;-58
2022/12/13 02:06:25;;;;;;;76.05;28.30;;;-5.00;99.90;;;;;;5025624;28;20125;-58
2022/12/13 02:08:51;;;;;;;70.85;27.83;;;-5.00;99.90;;;;;;5017648;28;20049;-57
2022/12/13 02:11:17;;;;;;;67.50;27.17;;;-5.00;99.90;;;;;;5025960;28;20037;-58
2022/12/13 02:13:42;;;;;;;58.72;26.67;;;-5.00;99.90;;;;;;5023545;28;20037;-58
2022/12/13 02:16:14;;;;;;;71.55;29.65;;;-5.00;99.90;;;;;;5026018;28;20069;-59
2022/12/13 02:19:03;;;;;;;63.50;26.75;;;-5.00;99.90;;;;;;5025770;28;20077;-58
2022/12/13 02:21:54;;;;;;;68.35;28.05;;;-5.00;99.90;;;;;;5018654;28;20584;-57
2022/12/13 02:24:56;;;;;;;69.13;28.80;;;-5.10;99.90;;;;;;5025058;28;20045;-58
2022/12/13 02:27:50;;;;;;;83.05;28.67;;;-5.00;99.90;;;;;;5025789;28;20041;-59
2022/12/13 02:30:25;;;;;;;68.40;28.38;;;-5.00;99.90;;;;;;5025289;28;20536;-58
2022/12/13 02:33:06;;;;;;;75.07;30.08;;;-5.00;99.90;;;;;;5024561;28;20116;-58
2022/12/13 02:36:10;;;;;;;75.75;27.85;;;-5.00;99.90;;;;;;5025141;28;20632;-58
2022/12/13 02:38:41;;;;;;;75.35;29.83;;;-5.00;99.90;;;;;;5024530;28;20045;-58
2022/12/13 02:41:26;;;;;;;88.15;31.80;;;-5.00;99.90;;;;;;5025625;28;20085;-57
2022/12/13 02:44:08;;;;;;;;;;;-5.00;99.90;;;;;;5022769;28;20045;-57
2022/12/13 02:46:40;;;;;;;78.20;29.90;;;-5.00;99.90;;;;;;5024999;28;19928;-59
2022/12/13 02:49:08;;;;;;;74.75;30.75;;;-5.00;99.90;;;;;;5025053;28;20582;-58
2022/12/13 02:51:35;;;;;;;72.18;28.83;;;-5.00;99.90;;;;;;5022171;28;20498;-58
2022/12/13 02:54:01;;;;;;;72.68;27.48;;;-5.00;99.90;;;;;;5022462;28;20120;-58
2022/12/13 02:56:27;;;;;;;67.90;28.15;;;-5.00;99.90;;;;;;5025489;28;20536;-59
2022/12/13 02:58:55;;;;;;;67.80;28.95;;;-5.00;99.90;;;;;;5022427;28;20124;-59
2022/12/13 03:01:54;;;;;;;61.85;27.10;;;-5.00;99.90;;;;;;5024662;28;20659;-57
2022/12/13 03:04:26;;;;;;;65.32;26.75;;;-5.00;99.90;;;;;;5024099;28;20068;-58
2022/12/13 03:07:16;;;;;;;58.95;25.98;;;-5.10;99.90;;;;;;5023905;28;20072;-57
2022/12/13 03:09:47;;;;;;;62.45;26.35;;;-5.20;99.90;;;;;;5024561;28;20038;-58
2022/12/13 03:15:28;;;;;;;74.30;27.92;;;-5.20;99.90;;;;;;5023645;28;20068;-58
2022/12/13 03:18:01;;;;;;;68.82;28.02;;;-5.20;99.90;;;;;;5024268;28;20049;-59
2022/12/13 03:20:28;;;;;;;64.45;25.30;;;-5.30;99.90;;;;;;5023798;28;20660;-58
2022/12/13 03:22:54;;;;;;;61.35;25.75;;;-5.30;99.90;;;;;;5022769;28;20128;-58
2022/12/13 03:25:21;;;;;;;66.03;26.45;;;-5.30;99.90;;;;;;5010544;28;20049;-57
2022/12/13 03:27:47;;;;;;;59.92;26.38;;;-5.40;99.90;;;;;;5003118;28;20046;-57
2022/12/13 03:30:13;;;;;;;59.15;24.80;;;-5.40;99.90;;;;;;5023185;28;20041;-58
2022/12/13 03:32:38;;;;;;;59.95;24.90;;;-5.40;99.90;;;;;;5024050;28;20041;-59
2022/12/13 03:35:05;;;;;;;56.30;24.60;;;-5.50;99.90;;;;;;5024231;28;20037;-58
2022/12/13 03:37:30;;;;;;;57.70;24.20;;;-5.50;99.90;;;;;;5024078;28;20168;-58
2022/12/13 03:39:56;;;;;;;57.00;24.50;;;-5.50;99.90;;;;;;5024252;28;20045;-59
2022/12/13 03:42:22;;;;;;;57.50;25.50;;;-5.60;99.90;;;;;;5023802;28;20503;-59
2022/12/13 03:44:47;;;;;;;59.97;25.50;;;-5.60;99.90;;;;;;5020803;28;20123;-58
2022/12/13 03:47:13;;;;;;;58.47;25.25;;;-5.60;99.90;;;;;;5022854;28;20080;-57
2022/12/13 03:49:39;;;;;;;62.45;26.17;;;-5.60;99.90;;;;;;5024448;28;20130;-59
2022/12/13 03:52:04;;;;;;;61.80;26.58;;;-5.60;99.90;;;;;;5022827;28;20045;-58
2022/12/13 03:54:30;;;;;;;67.93;27.88;;;-5.70;99.90;;;;;;5023518;28;20045;-58
2022/12/13 03:56:56;;;;;;;65.97;26.45;;;-5.70;99.90;;;;;;5023958;28;20138;-58
2022/12/13 03:59:22;;;;;;;59.85;26.88;;;-5.70;99.90;;;;;;5021765;28;20144;-59
2022/12/13 04:01:47;;;;;;;64.57;26.42;;;-5.70;99.90;;;;;;5024077;28;20613;-57
2022/12/13 04:04:13;;;;;;;64.47;26.98;;;-5.70;99.90;;;;;;5023179;28;20044;-59
2022/12/13 04:06:39;;;;;;;58.30;26.42;;;-5.70;99.90;;;;;;5023092;28;20037;-58
2022/12/13 04:09:04;;;;;;;63.72;26.02;;;-5.70;99.90;;;;;;5023766;28;20082;-58
2022/12/13 04:14:14;;;;;;;58.10;26.13;;;-5.70;99.90;;;;;;5021345;28;20069;-57
2022/12/13 04:16:39;;;;;;;64.30;26.38;;;-5.70;99.90;;;;;;5022582;28;20426;-57
2022/12/13 04:19:06;;;;;;;61.35;25.20;;;-5.70;99.90;;;;;;5023592;28;20049;-58
2022/12/13 04:21:32;;;;;;;59.33;24.65;;;-5.70;99.90;;;;;;5023371;28;20052;-58
2022/12/13 04:23:57;;;;;;;60.53;26.17;;;-5.80;99.90;;;;;;5022245;28;20037;-59
2022/12/13 04:26:23;;;;;;;60.20;26.35;;;-5.80;99.90;;;;;;5023556;28;20490;-59
2022/12/13 04:28:48;;;;;;;67.72;27.08;;;-5.80;99.90;;;;;;5021514;28;20037;-59
2022/12/13 04:31:14;;;;;;;58.08;25.85;;;-5.80;99.90;;;;;;5023999;28;20030;-58
2022/12/13 04:33:39;;;;;;;56.25;25.40;;;-5.80;99.90;;;;;;5023276;28;20051;-57
2022/12/13 04:36:05;;;;;;;65.05;24.63;;;-5.80;99.90;;;;;;5023205;28;20041;-59
2022/12/13 04:38:31;;;;;;;55.00;24.17;;;-5.80;99.90;;;;;;5022748;28;20455;-57
2022/12/13 04:41:07;;;;;;;58.10;24.00;;;-5.80;99.90;;;;;;5021923;28;20069;-58
2022/12/13 04:43:33;;;;;;;54.35;24.65;;;-5.90;99.90;;;;;;5007326;28;20093;-58
2022/12/13 04:45:59;;;;;;;55.38;25.02;;;-5.90;99.90;;;;;;5023622;28;20049;-57
2022/12/13 04:48:24;;;;;;;54.60;24.67;;;-6.00;99.90;;;;;;5021759;28;20041;-57
2022/12/13 04:50:50;;;;;;;58.03;26.58;;;-6.00;99.90;;;;;;5018122;28;20057;-58
2022/12/13 04:53:16;;;;;;;53.75;25.13;;;-6.00;99.90;;;;;;5022177;28;20098;-59
2022/12/13 04:55:41;;;;;;;56.83;25.33;;;-6.00;99.90;;;;;;5023402;28;20103;-59
2022/12/13 04:58:07;;;;;;;66.70;26.55;;;-6.00;99.90;;;;;;5021610;28;20048;-58
2022/12/13 05:00:32;;;;;;;57.78;24.67;;;-6.10;99.90;;;;;;5022774;28;20060;-58
2022/12/13 05:02:58;;;;;;;56.00;24.92;;;-6.10;99.90;;;;;;5022958;28;20037;-58
2022/12/13 05:05:23;;;;;;;61.08;25.83;;;-6.10;99.90;;;;;;5022882;28;20665;-59
2022/12/13 05:07:49;;;;;;;56.65;25.88;;;-6.00;99.90;;;;;;5022198;28;20037;-58
2022/12/13 05:10:15;;;;;;;59.63;26.25;;;-6.10;99.90;;;;;;5021474;28;20049;-58
2022/12/13 05:12:40;;;;;;;60.65;25.38;;;-6.10;99.90;;;;;;5021927;28;20069;-58
2022/12/13 05:15:06;;;;;;;58.42;26.00;;;-6.10;99.90;;;;;;5021799;28;20321;-57
2022/12/13 05:17:33;;;;;;;62.53;27.75;;;-6.00;99.90;;;;;;5023117;28;20045;-58
2022/12/13 05:19:58;;;;;;;68.15;28.58;;;-6.00;99.90;;;;;;5022751;28;20413;-59
2022/12/13 05:22:24;;;;;;;66.32;26.73;;;-6.00;99.90;;;;;;5038934;28;20040;-59
2022/12/13 05:24:49;;;;;;;63.50;27.15;;;-6.00;99.90;;;;;;5026546;28;20612;-59
2022/12/13 05:27:16;;;;;;;57.83;25.27;;;-6.00;99.90;;;;;;5026929;28;20041;-58
2022/12/13 05:29:41;;;;;;;66.60;28.63;;;-6.00;99.90;;;;;;5024903;28;20496;-58
2022/12/13 05:32:07;;;;;;;61.67;26.67;;;-6.00;99.90;;;;;;5026429;28;20055;-58
2022/12/13 05:34:32;;;;;;;61.78;26.17;;;-6.00;99.90;;;;;;5026550;28;20046;-58
2022/12/13 05:36:58;;;;;;;64.38;25.52;;;-6.00;99.90;;;;;;5025181;28;20689;-58
2022/12/13 05:39:23;;;;;;;60.08;26.15;;;-5.90;99.90;;;;;;5026086;28;20300;-58
2022/12/13 05:41:49;;;;;;;57.53;25.05;;;-5.90;99.90;;;;;;5026663;28;20131;-58
2022/12/13 05:44:14;;;;;;;60.22;26.50;;;-6.00;99.90;;;;;;5023904;28;20037;-58
2022/12/13 05:46:40;;;;;;;58.35;25.92;;;-6.00;99.90;;;;;;5026536;28;20041;-59
2022/12/13 05:49:06;;;;;;;56.05;25.42;;;-6.00;99.90;;;;;;5025813;28;20262;-58
2022/12/13 05:51:31;;;;;;;55.33;24.80;;;-6.00;99.90;;;;;;5025613;28;20049;-58
2022/12/13 05:53:57;;;;;;;55.78;25.05;;;-6.10;99.90;;;;;;5024865;28;20053;-59
2022/12/13 05:56:22;;;;;;;68.97;28.90;;;-6.10;99.90;;;;;;5026683;28;20041;-58
2022/12/13 05:58:48;;;;;;;56.92;26.58;;;-6.10;99.90;;;;;;5024195;28;20736;-57
2022/12/13 06:01:15;;;;;;;54.47;25.70;;;-6.10;99.90;;;;;;5026275;28;20041;-58
2022/12/13 06:03:42;;;;;;;57.67;24.50;;;-6.10;99.90;;;;;;5025806;28;20049;-58
2022/12/13 06:06:09;;;;;;;52.40;23.63;;;-6.10;99.90;;;;;;5025292;28;20067;-57
2022/12/13 06:08:35;;;;;;;54.08;24.88;;;-6.20;99.90;;;;;;5024709;28;20128;-59
2022/12/13 06:11:02;;;;;;;59.95;26.45;;;-6.20;99.90;;;;;;5025510;28;20049;-58
2022/12/13 06:13:28;;;;;;;63.65;24.90;;;-6.20;99.90;;;;;;5023583;28;20033;-58
2022/12/13 06:15:53;;;;;;;62.35;27.92;;;-6.20;99.90;;;;;;5025906;28;20381;-57
2022/12/13 06:18:19;;;;;;;61.55;27.08;;;-6.20;99.90;;;;;;5024302;28;20045;-57
2022/12/13 06:20:54;;;;;;;66.15;28.67;;;-6.10;99.90;;;;;;5024893;28;20060;-58
2022/12/13 06:23:19;;;;;;;94.05;35.28;;;-6.10;99.90;;;;;;5024711;28;20124;-57
2022/12/13 06:25:45;;;;;;;86.30;35.35;;;-6.10;99.90;;;;;;5021576;28;20033;-58
2022/12/13 06:28:10;;;;;;;69.70;28.50;;;-6.10;99.90;;;;;;5023600;28;20077;-58
2022/12/13 06:30:36;;;;;;;67.38;27.80;;;-6.10;99.90;;;;;;5025384;28;20049;-59
2022/12/13 06:33:02;;;;;;;57.55;27.15;;;-6.10;99.90;;;;;;5024020;28;20045;-58
2022/12/13 06:35:27;;;;;;;64.30;27.13;;;-6.10;99.90;;;;;;5020282;28;20045;-59
2022/12/13 06:37:53;;;;;;;64.13;26.67;;;-6.10;99.90;;;;;;5023383;28;20037;-56
2022/12/13 06:40:18;;;;;;;58.30;26.67;;;-6.10;99.90;;;;;;5024062;28;20037;-58
2022/12/13 06:42:44;;;;;;;68.22;26.52;;;-6.20;99.90;;;;;;5023632;28;20548;-58
2022/12/13 06:45:10;;;;;;;57.08;26.35;;;-6.10;99.90;;;;;;5023631;28;20037;-57
2022/12/13 06:47:35;;;;;;;56.05;25.15;;;-6.20;99.90;;;;;;5023968;28;20049;-58
2022/12/13 06:50:01;;;;;;;61.15;26.58;;;-6.20;99.90;;;;;;5024372;28;20033;-58
2022/12/13 06:52:26;;;;;;;53.55;24.15;;;-6.20;99.90;;;;;;5023977;28;20058;-58
2022/12/13 06:54:52;;;;;;;58.00;25.05;;;-6.20;99.90;;;;;;5023840;28;20072;-58
2022/12/13 06:57:18;;;;;;;53.60;23.95;;;-6.20;99.90;;;;;;5024261;28;20409;-58
2022/12/13 06:59:44;;;;;;;60.25;24.45;;;-6.30;99.90;;;;;;5022832;28;20044;-58
2022/12/13 07:02:09;;;;;;;62.70;26.48;;;-6.30;99.90;;;;;;5023777;28;20080;-58
2022/12/13 07:04:35;;;;;;;56.85;24.88;;;-6.30;99.90;;;;;;5024418;28;20045;-56
2022/12/13 07:07:01;;;;;;;58.42;26.70;;;-6.30;99.90;;;;;;5023360;28;20037;-57
2022/12/13 07:09:28;;;;;;;56.00;25.83;;;-6.30;99.90;;;;;;5024300;28;20029;-57
2022/12/13 07:11:53;;;;;;;53.20;24.65;;;-6.30;99.90;;;;;;5023552;28;20041;-58
2022/12/13 07:14:19;;;;;;;54.33;25.70;;;-6.40;99.90;;;;;;5022544;28;20037;-57
2022/12/13 07:16:45;;;;;;;59.95;24.85;;;-6.40;99.90;;;;;;5024382;28;20045;-57
2022/12/13 07:19:10;;;;;;;54.35;25.38;;;-6.40;99.90;;;;;;5023673;28;20037;-57
2022/12/13 07:21:37;;;;;;;61.80;25.98;;;-6.40;99.90;;;;;;5040042;28;20033;-60
2022/12/13 07:24:03;;;;;;;59.85;25.20;;;-6.40;99.90;;;;;;5023140;28;20041;-60
2022/12/13 07:26:29;;;;;;;51.33;24.52;;;-6.40;99.90;;;;;;5022816;28;20378;-59
2022/12/13 07:28:54;;;;;;;57.13;25.85;;;-6.40;99.90;;;;;;5019938;28;20055;-60
2022/12/13 07:31:20;;;;;;;58.10;24.77;;;-6.40;99.90;;;;;;5024532;28;20034;-59
2022/12/13 07:33:46;;;;;;;61.08;26.95;;;-6.40;99.90;;;;;;5024007;28;20033;-60
2022/12/13 07:36:17;;;;;;;65.88;27.40;;;-6.40;99.90;;;;;;5023851;28;20056;-58
2022/12/13 07:38:43;;;;;;;75.32;29.77;;;-6.40;99.90;;;;;;5023114;28;20053;-58
2022/12/13 07:41:10;;;;;;;73.72;30.48;;;-6.20;99.90;;;;;;5024638;28;20030;-60
2022/12/13 07:43:36;;;;;;;67.90;28.98;;;-6.10;99.90;;;;;;5021853;28;20409;-58
2022/12/13 07:46:04;;;;;;;62.28;26.50;;;-6.10;99.90;;;;;;5023989;28;20623;-58
2022/12/13 07:48:31;;;;;;;61.90;27.20;;;-6.00;99.90;;;;;;5021809;28;20184;-57
2022/12/13 07:51:02;;;;;;;63.95;27.42;;;-6.00;99.90;;;;;;5024005;28;20134;-58
2022/12/13 07:53:28;;;;;;;57.33;26.83;;;-5.90;99.90;;;;;;5022756;28;20126;-60
2022/12/13 07:55:53;;;;;;;63.75;28.60;;;-5.90;99.90;;;;;;5023333;28;20029;-59
2022/12/13 07:58:19;;;;;;;55.85;24.92;;;-5.90;99.90;;;;;;5021278;28;20420;-57
2022/12/13 08:00:45;;;;;;;60.00;27.00;;;-5.80;99.90;;;;;;5023966;28;20697;-56
2022/12/13 08:03:11;;;;;;;61.83;27.60;;;-5.80;99.90;;;;;;5022818;28;20041;-58
2022/12/13 08:05:37;;;;;;;65.95;27.63;;;-5.80;99.90;;;;;;5024148;28;20087;-58
2022/12/13 08:08:05;;;;;;;73.05;28.60;;;-5.70;99.90;;;;;;5021769;28;20076;-58
2022/12/13 08:10:31;;;;;;;62.17;29.25;;;-5.70;99.90;;;;;;5024027;28;20494;-59
2022/12/13 08:12:57;;;;;;;64.40;28.33;;;-5.60;99.90;;;;;;5023415;28;20032;-58
2022/12/13 08:15:24;;;;;;;65.15;30.17;;;-5.50;99.90;;;;;;5022275;28;20223;-59
2022/12/13 08:17:50;;;;;;;68.70;29.90;;;-5.50;99.90;;;;;;5022679;28;20106;-58
2022/12/13 08:20:16;;;;;;;66.70;29.05;;;-5.40;99.90;;;;;;5023461;28;20132;-59
2022/12/13 08:22:42;;;;;;;70.70;30.48;;;-5.30;99.90;;;;;;5022655;28;20887;-60
2022/12/13 08:25:08;;;;;;;67.53;28.58;;;-5.20;99.90;;;;;;5023681;28;20057;-57
2022/12/13 08:27:34;;;;;;;60.20;28.45;;;-5.20;99.90;;;;;;5021522;28;20038;-59
2022/12/13 08:29:59;;;;;;;65.93;28.20;;;-5.10;99.90;;;;;;5022149;28;20037;-59
2022/12/13 08:32:25;;;;;;;64.25;29.48;;;-5.10;99.90;;;;;;5023577;28;20525;-59
2022/12/13 08:34:50;;;;;;;71.65;29.25;;;-5.00;99.90;;;;;;5023616;28;20045;-59
2022/12/13 08:37:16;;;;;;;72.18;29.02;;;-4.90;99.90;;;;;;5021470;28;20041;-57
2022/12/13 08:39:43;;;;;;;71.85;30.10;;;-4.80;99.90;;;;;;5021715;28;20049;-57
2022/12/13 08:42:14;;;;;;;72.80;31.05;;;-4.80;99.90;;;;;;5021841;28;20048;-58
2022/12/13 08:44:40;;;;;;;71.40;30.65;;;-4.70;99.90;;;;;;5020849;28;20265;-58
2022/12/13 08:47:06;;;;;;;67.05;30.55;;;-4.60;99.90;;;;;;5022919;28;20048;-60
2022/12/13 08:49:31;;;;;;;75.95;30.88;;;-4.50;99.90;;;;;;5023434;28;20037;-58
2022/12/13 08:51:57;;;;;;;72.47;31.98;;;-4.40;99.90;;;;;;5037058;28;20060;-58
2022/12/13 08:54:23;;;;;;;68.15;29.83;;;-4.40;99.90;;;;;;5023186;28;20188;-59
2022/12/13 08:56:48;;;;;;;67.68;30.58;;;-4.30;99.90;;;;;;5023819;28;20045;-59
2022/12/13 08:59:14;;;;;;;72.03;30.98;;;-4.20;99.90;;;;;;5024426;28;20026;-58
2022/12/13 09:01:39;;;;;;;70.45;31.20;;;-4.10;99.90;;;;;;5026933;28;20469;-58
2022/12/13 09:04:05;;;;;;;79.13;33.55;;;-4.00;99.90;;;;;;5027014;28;20085;-59
2022/12/13 09:06:30;;;;;;;78.10;32.55;;;-3.90;99.90;;;;;;5027142;28;20414;-58
2022/12/13 09:08:56;;;;;;;75.90;33.13;;;-3.80;99.90;;;;;;5025653;28;20041;-58
2022/12/13 09:11:22;;;;;;;73.50;31.95;;;-3.70;99.90;;;;;;5025416;28;20579;-58
2022/12/13 09:13:48;;;;;;;71.85;30.60;;;-3.60;99.90;;;;;;5023485;28;20488;-58
2022/12/13 09:16:18;;;;;;;74.78;31.10;;;-3.50;99.90;;;;;;5042464;28;20045;-59
2022/12/13 09:18:45;;;;;;;69.28;31.55;;;-3.40;99.90;;;;;;5024434;28;20045;-58
2022/12/13 09:21:13;;;;;;;76.40;33.40;;;-3.40;99.90;;;;;;5026658;28;20389;-58
2022/12/13 09:23:42;;;;;;;77.53;32.63;;;-3.30;99.90;;;;;;5025389;28;20053;-58
2022/12/13 09:26:10;;;;;;;69.57;31.33;;;-3.30;99.90;;;;;;5026697;28;20045;-59
2022/12/13 09:28:37;;;;;;;63.80;30.08;;;-3.30;99.90;;;;;;5025683;28;20598;-57
2022/12/13 09:31:21;;;;;;;73.90;31.70;;;-3.20;99.90;;;;;;5025613;28;20567;-58
2022/12/13 09:33:47;;;;;;;64.03;29.65;;;-3.10;99.90;;;;;;5024789;28;20037;-58
2022/12/13 09:36:15;;;;;;;73.03;32.88;;;-3.10;99.90;;;;;;5026815;28;20493;-58
2022/12/13 09:38:41;;;;;;;73.53;32.35;;;-3.10;99.90;;;;;;5025861;28;20049;-58
2022/12/13 09:41:18;;;;;;;70.30;31.08;;;-3.00;99.90;;;;;;5026445;28;20047;-58
2022/12/13 09:43:52;;;;;;;74.45;33.45;;;-3.00;99.90;;;;;;5023575;28;20099;-59
2022/12/13 09:46:26;;;;;;;72.15;32.97;;;-3.00;99.90;;;;;;5026190;28;20057;-57
2022/12/13 09:48:53;;;;;;;82.53;33.00;;;-2.90;99.90;;;;;;5025999;28;20038;-59
2022/12/13 09:51:19;;;;;;;77.70;33.88;;;-2.90;99.90;;;;;;5025597;28;20053;-57
2022/12/13 09:53:48;;;;;;;69.15;32.75;;;-2.80;99.90;;;;;;5025289;28;20059;-57
2022/12/13 09:56:18;;;;;;;76.00;34.45;;;-2.80;99.90;;;;;;5026125;28;20042;-58
2022/12/13 09:58:47;;;;;;;79.60;34.38;;;-2.70;99.90;;;;;;5023478;28;20087;-58
2022/12/13 10:01:13;;;;;;;78.65;34.60;;;-2.70;99.90;;;;;;5026035;28;20046;-58
2022/12/13 10:03:45;;;;;;;82.95;35.25;;;-2.70;99.90;;;;;;5025458;28;20485;-58
2022/12/13 10:06:15;;;;;;;77.82;34.90;;;-2.60;99.90;;;;;;5026232;28;20038;-58
2022/12/13 10:08:52;;;;;;;76.97;34.45;;;-2.60;99.90;;;;;;5024280;28;20047;-58
2022/12/13 10:11:19;;;;;;;71.53;34.70;;;-2.50;99.90;;;;;;5026381;28;20041;-57
2022/12/13 10:13:59;;;;;;;74.63;34.17;;;-2.50;99.90;;;;;;5022255;28;20124;-60
2022/12/13 10:16:45;;;;;;;77.45;34.92;;;-2.50;99.90;;;;;;5026006;28;20790;-57
2022/12/13 10:19:16;;;;;;;75.85;35.47;;;-2.40;99.90;;;;;;5025806;28;20263;-58
2022/12/13 10:21:43;;;;;;;83.90;36.83;;;-2.40;99.90;;;;;;5025045;28;20057;-56
2022/12/13 10:24:17;;;;;;;76.88;36.15;;;-2.30;99.90;;;;;;5040138;28;20038;-58
2022/12/13 10:26:43;;;;;;;77.35;36.78;;;-2.30;99.90;;;;;;5025781;28;20041;-58
2022/12/13 10:29:09;;;;;;;80.82;37.13;;;-2.20;99.90;;;;;;5023123;28;20653;-59
2022/12/13 10:31:44;;;;;;;79.13;35.05;;;-2.20;99.90;;;;;;5025261;28;20111;-59
2022/12/13 10:34:28;;;;;;;76.70;35.67;;;-2.20;99.90;;;;;;5024969;28;20420;-59
2022/12/13 10:36:54;;;;;;;75.97;35.38;;;-2.10;99.90;;;;;;5025148;28;20117;-58
2022/12/13 10:39:40;;;;;;;74.53;33.72;;;-2.00;99.90;;;;;;5024854;28;20037;-58
2022/12/13 10:42:13;;;;;;;86.32;36.17;;;-1.90;99.90;;;;;;5023253;28;20063;-58
2022/12/13 10:44:39;;;;;;;71.95;34.80;;;-1.80;99.90;;;;;;5018093;28;20042;-58
2022/12/13 10:47:19;;;;;;;82.85;37.47;;;-1.70;99.90;;;;;;5011749;28;20621;-58
2022/12/13 10:49:57;;;;;;;67.20;34.17;;;-1.60;99.90;;;;;;5025032;28;20053;-58
2022/12/13 10:52:37;;;;;;;83.70;38.45;;;-1.40;99.90;;;;;;5023512;28;20142;-59
2022/12/13 10:55:21;;;;;;;78.35;36.65;;;-1.30;99.90;;;;;;5025210;28;20081;-59
2022/12/13 10:57:55;;;;;;;72.38;34.70;;;-1.20;99.90;;;;;;5023643;28;20121;-60
2022/12/13 11:00:39;;;;;;;70.78;33.83;;;-1.10;99.90;;;;;;5023332;28;20045;-58
2022/12/13 11:03:06;;;;;;;74.63;34.03;;;-1.00;99.90;;;;;;5024626;28;20045;-59
2022/12/13 11:05:34;;;;;;;65.85;33.13;;;-0.90;99.90;;;;;;5024575;28;20034;-60
2022/12/13 11:08:25;;;;;;;54.28;28.90;;;-0.80;99.90;;;;;;5023997;28;20044;-59
2022/12/13 11:11:05;;;;;;;61.58;30.38;;;-0.70;99.90;;;;;;5006846;28;20533;-58
2022/12/13 11:14:00;;;;;;;62.53;28.95;;;-0.60;99.90;;;;;;5021867;28;20068;-58
2022/12/13 11:16:36;;;;;;;57.58;30.50;;;-0.60;99.90;;;;;;5025227;28;20046;-58
2022/12/13 11:19:07;;;;;;;58.00;30.20;;;-0.50;99.90;;;;;;5022963;28;20056;-59
2022/12/13 11:21:36;;;;;;;51.28;28.58;;;-0.40;99.90;;;;;;5024663;28;20464;-59
2022/12/13 11:24:05;;;;;;;60.30;28.60;;;-0.40;99.90;;;;;;5024096;28;20122;-59
2022/12/13 11:26:33;;;;;;;53.83;29.63;;;-0.20;99.90;;;;;;5024639;28;20040;-58
2022/12/13 11:29:23;;;;;;;63.08;29.80;;;0.00;99.90;;;;;;5022230;28;20044;-58
2022/12/13 11:32:24;;;;;;;60.17;29.45;;;0.20;99.90;;;;;;5025247;28;20049;-59
2022/12/13 11:35:04;;;;;;;58.95;28.85;;;0.30;99.90;;;;;;5025003;28;20049;-59
2022/12/13 11:37:42;;;;;;;54.85;28.35;;;0.40;99.90;;;;;;5023936;28;20103;-59
2022/12/13 11:40:13;;;;;;;54.17;28.48;;;0.50;99.90;;;;;;5025284;28;20052;-58
2022/12/13 11:42:59;;;;;;;49.50;26.92;;;0.60;99.90;;;;;;5022848;28;20846;-58
2022/12/13 11:45:27;;;;;;;56.72;29.08;;;0.60;99.90;;;;;;5024056;28;20049;-60
2022/12/13 11:48:08;;;;;;;53.13;27.27;;;0.70;99.90;;;;;;5025322;28;20041;-59
2022/12/13 11:50:49;;;;;;;52.72;27.13;;;0.70;99.90;;;;;;5025321;28;20068;-60
2022/12/13 11:53:17;;;;;;;48.17;27.42;;;0.80;99.90;;;;;;5022412;28;20423;-59
2022/12/13 11:56:11;;;;;;;49.53;26.17;;;0.80;99.90;;;;;;5024010;28;20061;-59
2022/12/13 11:58:40;;;;;;;51.25;27.95;;;0.80;99.90;;;;;;5022715;28;20045;-59
2022/12/13 12:01:11;;;;;;;47.45;25.60;;;0.80;99.90;;;;;;5040344;28;20328;-59
2022/12/13 12:03:40;;;;;;;47.20;27.23;;;0.70;99.90;;;;;;5024009;28;20052;-59
2022/12/13 12:06:28;;;;;;;45.13;25.90;;;0.70;99.90;;;;;;5023978;28;20033;-59
2022/12/13 12:09:03;;;;;;;46.22;25.25;;;0.60;99.90;;;;;;5023216;28;20447;-58
2022/12/13 12:11:51;;;;;;;50.42;26.50;;;0.50;99.90;;;;;;5023486;28;20041;-60
2022/12/13 12:14:48;;;;;;;45.88;24.65;;;0.40;99.90;;;;;;5014426;28;20171;-59
2022/12/13 12:17:17;;;;;;;50.88;26.60;;;0.40;99.90;;;;;;5024171;28;20103;-59
2022/12/13 12:19:47;;;;;;;44.78;25.17;;;0.30;99.90;;;;;;5023770;28;20064;-59
2022/12/13 12:22:42;;;;;;;48.10;25.73;;;0.30;99.90;;;;;;5005477;28;20041;-60
2022/12/13 12:25:26;;;;;;;45.13;25.35;;;0.30;99.90;;;;;;5007177;28;20046;-58
2022/12/13 12:28:28;;;;;;;47.47;25.08;;;0.30;99.90;;;;;;5003775;28;20046;-59
2022/12/13 12:31:22;;;;;;;45.60;24.10;;;0.30;99.90;;;;;;5003999;28;20069;-59
2022/12/13 12:34:14;;;;;;;49.47;24.77;;;0.30;99.90;;;;;;5020526;28;20778;-59
2022/12/13 12:37:04;;;;;;;47.42;25.70;;;0.30;99.90;;;;;;5023204;28;20107;-59
2022/12/13 12:39:42;;;;;;;44.78;24.25;;;0.30;99.90;;;;;;5003677;28;20350;-59
2022/12/13 12:42:33;;;;;;;48.50;26.02;;;0.30;99.90;;;;;;5007438;28;20646;-58
2022/12/13 12:45:11;;;;;;;46.35;25.05;;;0.40;99.90;;;;;;5022705;28;20107;-59
2022/12/13 12:48:05;;;;;;;46.33;24.65;;;0.40;99.90;;;;;;5022939;28;20049;-59